GORO2: Illinois River, Gore, OK

Data processed at Fri Jun 15 2018 23:34


All information presented herein is the property of the government of the United States of America and may be revised or deleted at any time without prior notice.
Dissemination of this information without the expressed written consent of the Public Affairs Office, Tulsa District U.S. Army Corps of Engineers is strictly prohibited.
These data are gathered electronically and, as presented, have not undergone any form of quality control. These data are not guaranteed to be valid or correct.
Go to home page.
Go to station list.

Upstream stations:

Downstream station:
Previous Day
Next Day
Current Day
    
SHEF ID:       GORO2     Illinois River near Gore, OK
STATION TYPE:  

               PRECIP PRECIP(A)     STAGE  STAGE(2)  RIV-FLOW  WTR-TEMP   DIS-OXY   VOLTAGE  BAT-LOAD
                   in        in        ft        ft       cfs         F      mg/l      volt      volt
              Ccp-Rev   Ccp-Rev   Ccp-Rev   Ccp-Rev   Ccp-Rev   Ccp-Rev   Ccp-Rev   Ccp-Rev   Ccp-Rev
(US/Central)
06/13 00:00      0.00      ----      6.78      9.73       128     58.35      7.58      ----     12.77
06/13 01:00      0.00      ----      6.70      9.73       109     58.62      7.33      ----     12.77
06/13 02:00      0.00      ----      6.65      9.73        97     58.84      6.97      ----     12.71
06/13 03:00      0.00      ----      6.60      9.73        86     59.07      6.72      ----     12.71
06/13 04:00      0.00      ----      6.58      9.73        82     59.20      6.50      ----     12.71
06/13 05:00      0.00      ----      6.55      9.73        77     59.32      6.09      ----     12.71
06/13 06:00      0.00      ----      6.54      9.73        75     59.38      5.67      ----     12.65
06/13 07:00      0.00      ----      6.52      9.73        71     59.47      5.20      ----     12.71
06/13 08:00      0.00      ----      6.51      9.73        69     59.70      5.40      ----     12.71
06/13 09:00      0.00      ----      6.50      9.72        68     60.55      5.77      ----     12.83
06/13 10:00      0.00      ----      6.49      9.72        66     61.74      6.73      ----     12.89
06/13 11:00      0.00      ----      6.49      9.72        66     63.84      7.48      ----     13.07
06/13 12:00      0.00      ----      6.48      9.72        64     65.44      7.51      ----     13.12
06/13 13:00      0.00      ----      7.21      9.72       247     66.60      8.88      ----     13.12
06/13 14:00      0.00      ----      8.78      9.72       997     60.67      9.43      ----     13.18
06/13 15:00      0.00      ----     10.80      9.73      2859     59.49      8.97      ----      ----
06/13 16:00      0.00      ----     11.45      9.73      3728     58.24      8.09      ----      ----
06/13 17:00      0.00      ----     11.52      9.73      3828     57.97      7.96      ----      ----
06/13 18:00      0.00      ----     11.53      9.73      3843     57.74      7.91      ----      ----
06/13 19:00      0.00      ----      9.69      9.73      1681     58.21      7.96      ----      ----
06/13 20:00      0.00      ----      7.80      9.73       471     58.44      8.08      ----     12.83
06/13 21:00      0.00      ----      7.21      9.73       247     58.78      7.77      ----     12.83
06/13 22:00      0.00      ----      6.93      9.73       166     59.05      7.64      ----     12.77
06/13 23:00      0.00      ----      6.78      9.73       128     59.29      7.57      ----     12.77